createdAt,value
2023-04-08T00:00:46.244Z,10.05
2023-04-08T00:06:48.891Z,9.92
2023-04-08T00:12:57.036Z,9.87
2023-04-08T00:18:59.192Z,10.03
2023-04-08T00:25:02.134Z,9.99
2023-04-08T00:31:05.057Z,10.07
2023-04-08T00:37:07.516Z,10.16
2023-04-08T00:43:09.671Z,10.02
2023-04-08T00:49:13.005Z,10.30
2023-04-08T00:55:18.056Z,10.25
2023-04-08T01:01:32.149Z,10.54
2023-04-08T01:07:41.825Z,10.63
2023-04-08T01:13:46.535Z,10.52
2023-04-08T01:19:50.967Z,10.68
2023-04-08T01:25:54.516Z,10.47
2023-04-08T01:31:58.091Z,10.43
2023-04-08T01:38:05.878Z,10.31
2023-04-08T01:44:10.551Z,10.28
2023-04-08T01:50:14.023Z,10.47
2023-04-08T01:56:17.545Z,10.49
2023-04-08T02:02:25.399Z,10.56
2023-04-08T02:08:27.804Z,10.62
2023-04-08T02:14:30.429Z,10.84
2023-04-08T02:20:48.214Z,10.87
2023-04-08T02:26:52.374Z,10.99
2023-04-08T02:32:54.994Z,10.64
2023-04-08T02:38:59.088Z,10.76
2023-04-08T02:45:01.259Z,10.62
2023-04-08T02:51:04.414Z,10.61
2023-04-08T02:57:08.254Z,10.52
2023-04-08T03:03:11.151Z,10.75
2023-04-08T03:09:14.438Z,10.79
2023-04-08T03:15:17.297Z,10.63
2023-04-08T03:21:19.553Z,10.59
2023-04-08T03:27:22.874Z,10.43
2023-04-08T03:33:25.569Z,10.67
2023-04-08T03:39:28.938Z,10.58
2023-04-08T03:45:32.340Z,10.45
2023-04-08T03:51:34.585Z,10.36
2023-04-08T03:57:36.837Z,10.42
2023-04-08T04:03:39.077Z,10.23
2023-04-08T04:09:41.642Z,10.35
2023-04-08T04:15:45.792Z,10.15
